SAA76 FAOR-FYWH
Flight info
| Callsign | SAA76 |
|---|---|
| Flight time | 1h 54m |
| Altitude | 34000 |
| Route | VASUR3A VASUR UQ24 ETOSA UL435 GBV UN182 AXODO AXODO1B |
| Aircraft | A320/M-SDE3FGHIRWY/LB1 |
Departure
| Time | 2026-05-04 12:48 |
|---|---|
| Airport | O.R. Tambo International Airport (FAOR) |
Arrival
| Time | 2026-05-04 14:42 |
|---|---|
| Airport | Hosea Kutako International Airport (FYWH) |
| Time | Latitude | Longitude | Altitude | Speed | Heading |
|---|---|---|---|---|---|
| 2026-05-04 12:32 | -26.13227 | 28.23311 | 5551 ft | 0 kts | 275° |
| 2026-05-04 12:39 | -26.13228 | 28.23318 | 5546 ft | 4 kts | 274° |
| 2026-05-04 12:40 | -26.13229 | 28.23348 | 5546 ft | 4 kts | 269° |
| 2026-05-04 12:40 | -26.13227 | 28.23377 | 5546 ft | 4 kts | 255° |
| 2026-05-04 12:40 | -26.13216 | 28.23401 | 5547 ft | 4 kts | 203° |
| 2026-05-04 12:40 | -26.13206 | 28.23405 | 5548 ft | 1 kts | 185° |
| 2026-05-04 12:43 | -26.13213 | 28.23404 | 5550 ft | 4 kts | 185° |
| 2026-05-04 12:44 | -26.13262 | 28.23399 | 5546 ft | 10 kts | 186° |
| 2026-05-04 12:44 | -26.13354 | 28.23388 | 5546 ft | 16 kts | 185° |
| 2026-05-04 12:44 | -26.13428 | 28.23443 | 5548 ft | 15 kts | 92° |
| 2026-05-04 12:44 | -26.13438 | 28.23557 | 5549 ft | 15 kts | 98° |
| 2026-05-04 12:45 | -26.13518 | 28.23581 | 5549 ft | 16 kts | 199° |
| 2026-05-04 12:45 | -26.13646 | 28.23541 | 5550 ft | 22 kts | 195° |
| 2026-05-04 12:45 | -26.13797 | 28.23496 | 5554 ft | 22 kts | 193° |
| 2026-05-04 12:45 | -26.13945 | 28.23449 | 5557 ft | 22 kts | 195° |
| 2026-05-04 12:46 | -26.14095 | 28.23402 | 5561 ft | 22 kts | 196° |
| 2026-05-04 12:46 | -26.14243 | 28.23356 | 5562 ft | 22 kts | 196° |
| 2026-05-04 12:46 | -26.14389 | 28.23310 | 5564 ft | 22 kts | 196° |
| 2026-05-04 12:46 | -26.14488 | 28.23345 | 5564 ft | 16 kts | 89° |
| 2026-05-04 12:47 | -26.14462 | 28.23467 | 5561 ft | 18 kts | 73° |
| 2026-05-04 12:47 | -26.14356 | 28.23524 | 5561 ft | 21 kts | 15° |
| 2026-05-04 12:47 | -26.14011 | 28.23630 | 5561 ft | 90 kts | 16° |
| 2026-05-04 12:47 | -26.13182 | 28.23888 | 5547 ft | 154 kts | 15° |
| 2026-05-04 12:48 | -26.11991 | 28.24261 | 5645 ft | 194 kts | 12° |
| 2026-05-04 12:48 | -26.10708 | 28.24671 | 6633 ft | 191 kts | 13° |
| 2026-05-04 12:48 | -26.09354 | 28.25049 | 7091 ft | 211 kts | 9° |
| 2026-05-04 12:48 | -26.07843 | 28.25421 | 7273 ft | 235 kts | 9° |
| 2026-05-04 12:49 | -26.06180 | 28.25692 | 7513 ft | 255 kts | 352° |
| 2026-05-04 12:49 | -26.04521 | 28.24947 | 7962 ft | 266 kts | 317° |
| 2026-05-04 12:49 | -26.03436 | 28.23263 | 8645 ft | 273 kts | 296° |
| 2026-05-04 12:49 | -26.02759 | 28.21282 | 9440 ft | 276 kts | 288° |
| 2026-05-04 12:50 | -26.02216 | 28.19227 | 10214 ft | 279 kts | 288° |
| 2026-05-04 12:50 | -26.01304 | 28.17295 | 10597 ft | 294 kts | 311° |
| 2026-05-04 12:50 | -25.99712 | 28.15737 | 10797 ft | 316 kts | 324° |
| 2026-05-04 12:50 | -25.97796 | 28.14446 | 11311 ft | 325 kts | 330° |
| 2026-05-04 12:51 | -25.95769 | 28.13296 | 11928 ft | 329 kts | 333° |
| 2026-05-04 12:51 | -25.93696 | 28.12173 | 12559 ft | 333 kts | 333° |
| 2026-05-04 12:51 | -25.91613 | 28.11020 | 13209 ft | 336 kts | 332° |
| 2026-05-04 12:51 | -25.89528 | 28.09813 | 13864 ft | 339 kts | 330° |
| 2026-05-04 12:52 | -25.87444 | 28.08562 | 14446 ft | 342 kts | 330° |
| 2026-05-04 12:52 | -25.85357 | 28.07279 | 15035 ft | 343 kts | 329° |
| 2026-05-04 12:52 | -25.83266 | 28.05983 | 15630 ft | 345 kts | 329° |
| 2026-05-04 12:52 | -25.81171 | 28.04680 | 16209 ft | 346 kts | 329° |
| 2026-05-04 12:53 | -25.79063 | 28.03370 | 16779 ft | 348 kts | 329° |
| 2026-05-04 12:53 | -25.76939 | 28.02054 | 17315 ft | 351 kts | 329° |
| 2026-05-04 12:53 | -25.74804 | 28.00732 | 17883 ft | 352 kts | 329° |
| 2026-05-04 12:53 | -25.72656 | 27.99406 | 18471 ft | 354 kts | 329° |
| 2026-05-04 12:54 | -25.70498 | 27.98074 | 18930 ft | 356 kts | 329° |
| 2026-05-04 12:54 | -25.68354 | 27.96752 | 19378 ft | 359 kts | 329° |
| 2026-05-04 12:54 | -25.66171 | 27.95403 | 19885 ft | 360 kts | 329° |
| 2026-05-04 12:54 | -25.63971 | 27.94045 | 20385 ft | 363 kts | 329° |
| 2026-05-04 12:55 | -25.61763 | 27.92682 | 20847 ft | 365 kts | 329° |
| 2026-05-04 12:55 | -25.59537 | 27.91311 | 21316 ft | 367 kts | 329° |
| 2026-05-04 12:55 | -25.57417 | 27.89727 | 21757 ft | 369 kts | 319° |
| 2026-05-04 12:55 | -25.55629 | 27.87688 | 22203 ft | 371 kts | 308° |
| 2026-05-04 12:56 | -25.54242 | 27.85274 | 22643 ft | 374 kts | 300° |
| 2026-05-04 12:56 | -25.52973 | 27.82750 | 23088 ft | 376 kts | 300° |
| 2026-05-04 12:56 | -25.51691 | 27.80212 | 23536 ft | 378 kts | 300° |
| 2026-05-04 12:56 | -25.50398 | 27.77667 | 23932 ft | 381 kts | 300° |
| 2026-05-04 12:57 | -25.49536 | 27.75975 | 24181 ft | 382 kts | 300° |
| 2026-05-04 12:57 | -25.48231 | 27.73408 | 24549 ft | 384 kts | 300° |
| 2026-05-04 12:57 | -25.46922 | 27.70826 | 24911 ft | 386 kts | 300° |
| 2026-05-04 12:57 | -25.45607 | 27.68232 | 25268 ft | 388 kts | 300° |
| 2026-05-04 12:58 | -25.44282 | 27.65623 | 25630 ft | 389 kts | 300° |
| 2026-05-04 12:58 | -25.42952 | 27.63010 | 25991 ft | 391 kts | 300° |
| 2026-05-04 12:58 | -25.41612 | 27.60383 | 26346 ft | 393 kts | 300° |
| 2026-05-04 12:58 | -25.40268 | 27.57746 | 26694 ft | 395 kts | 300° |
| 2026-05-04 12:59 | -25.38921 | 27.55097 | 27032 ft | 396 kts | 299° |
| 2026-05-04 12:59 | -25.37566 | 27.52432 | 27365 ft | 398 kts | 299° |
| 2026-05-04 12:59 | -25.36204 | 27.49757 | 27696 ft | 400 kts | 299° |
| 2026-05-04 12:59 | -25.34833 | 27.47072 | 28025 ft | 402 kts | 299° |
| 2026-05-04 13:00 | -25.33458 | 27.44379 | 28349 ft | 403 kts | 299° |
| 2026-05-04 13:00 | -25.32092 | 27.41708 | 28677 ft | 405 kts | 299° |
| 2026-05-04 13:00 | -25.30702 | 27.38992 | 29019 ft | 407 kts | 299° |
| 2026-05-04 13:00 | -25.29307 | 27.36262 | 29348 ft | 409 kts | 298° |
| 2026-05-04 13:01 | -25.27904 | 27.33516 | 29678 ft | 411 kts | 298° |
| 2026-05-04 13:01 | -25.26493 | 27.30759 | 30011 ft | 413 kts | 298° |
| 2026-05-04 13:01 | -25.25074 | 27.27993 | 30313 ft | 415 kts | 298° |
| 2026-05-04 13:01 | -25.23648 | 27.25214 | 30590 ft | 416 kts | 298° |
| 2026-05-04 13:02 | -25.22225 | 27.22437 | 31017 ft | 414 kts | 298° |
| 2026-05-04 13:02 | -25.20816 | 27.19685 | 31468 ft | 411 kts | 297° |
| 2026-05-04 13:02 | -25.19484 | 27.16910 | 31928 ft | 408 kts | 295° |
| 2026-05-04 13:02 | -25.18251 | 27.14101 | 32394 ft | 405 kts | 294° |
| 2026-05-04 13:03 | -25.17085 | 27.11293 | 32912 ft | 401 kts | 292° |
| 2026-05-04 13:03 | -25.15945 | 27.08496 | 33403 ft | 398 kts | 292° |
| 2026-05-04 13:03 | -25.14807 | 27.05724 | 33892 ft | 395 kts | 293° |
| 2026-05-04 13:03 | -25.13657 | 27.02968 | 34137 ft | 394 kts | 293° |
| 2026-05-04 13:04 | -25.12495 | 27.00231 | 34187 ft | 393 kts | 293° |
| 2026-05-04 13:04 | -25.10154 | 26.94799 | 34183 ft | 391 kts | 294° |
| 2026-05-04 13:05 | -25.07833 | 26.89415 | 34179 ft | 391 kts | 293° |
| 2026-05-04 13:05 | -25.05501 | 26.83992 | 34179 ft | 391 kts | 294° |
| 2026-05-04 13:06 | -25.03172 | 26.78580 | 34182 ft | 391 kts | 294° |
| 2026-05-04 13:06 | -25.00843 | 26.73163 | 34180 ft | 391 kts | 294° |
| 2026-05-04 13:07 | -24.98514 | 26.67742 | 34178 ft | 391 kts | 294° |
| 2026-05-04 13:07 | -24.96173 | 26.62331 | 34175 ft | 391 kts | 294° |
| 2026-05-04 13:08 | -24.93827 | 26.56918 | 34173 ft | 391 kts | 294° |
| 2026-05-04 13:08 | -24.91485 | 26.51504 | 34174 ft | 391 kts | 294° |
| 2026-05-04 13:09 | -24.89160 | 26.46127 | 34169 ft | 391 kts | 294° |
| 2026-05-04 13:09 | -24.86815 | 26.40717 | 34172 ft | 391 kts | 294° |
| 2026-05-04 13:10 | -24.84459 | 26.35315 | 34172 ft | 391 kts | 294° |
| 2026-05-04 13:10 | -24.82104 | 26.29919 | 34171 ft | 391 kts | 294° |
| 2026-05-04 13:11 | -24.79759 | 26.24521 | 34177 ft | 391 kts | 294° |
| 2026-05-04 13:11 | -24.77413 | 26.19130 | 34172 ft | 390 kts | 294° |
| 2026-05-04 13:12 | -24.75065 | 26.13746 | 34168 ft | 390 kts | 294° |
| 2026-05-04 13:12 | -24.72731 | 26.08410 | 34164 ft | 390 kts | 294° |
| 2026-05-04 13:13 | -24.70310 | 26.03080 | 34162 ft | 390 kts | 297° |
| 2026-05-04 13:13 | -24.67609 | 25.97912 | 34154 ft | 390 kts | 298° |
| 2026-05-04 13:14 | -24.64827 | 25.92794 | 34150 ft | 390 kts | 298° |
| 2026-05-04 13:14 | -24.62076 | 25.87654 | 34147 ft | 390 kts | 298° |
| 2026-05-04 13:15 | -24.59683 | 25.82326 | 34145 ft | 388 kts | 286° |
| 2026-05-04 13:15 | -24.58576 | 25.76516 | 34147 ft | 389 kts | 282° |
| 2026-05-04 13:16 | -24.57517 | 25.70688 | 34145 ft | 389 kts | 282° |
| 2026-05-04 13:16 | -24.56455 | 25.64864 | 34139 ft | 389 kts | 282° |
| 2026-05-04 13:17 | -24.55392 | 25.59039 | 34128 ft | 389 kts | 282° |
| 2026-05-04 13:17 | -24.54337 | 25.53210 | 34122 ft | 389 kts | 282° |
| 2026-05-04 13:18 | -24.53295 | 25.47426 | 34114 ft | 389 kts | 282° |
| 2026-05-04 13:18 | -24.52228 | 25.41602 | 34111 ft | 389 kts | 282° |
| 2026-05-04 13:19 | -24.51156 | 25.35785 | 34106 ft | 389 kts | 282° |
| 2026-05-04 13:19 | -24.50091 | 25.29966 | 34109 ft | 389 kts | 282° |
| 2026-05-04 13:20 | -24.49030 | 25.24152 | 34104 ft | 388 kts | 282° |
| 2026-05-04 13:20 | -24.47957 | 25.18348 | 34103 ft | 388 kts | 282° |
| 2026-05-04 13:21 | -24.46884 | 25.12555 | 34100 ft | 387 kts | 282° |
| 2026-05-04 13:21 | -24.45816 | 25.06770 | 34097 ft | 386 kts | 282° |
| 2026-05-04 13:22 | -24.44745 | 25.00992 | 34088 ft | 386 kts | 282° |
| 2026-05-04 13:22 | -24.43674 | 24.95228 | 34084 ft | 385 kts | 282° |
| 2026-05-04 13:23 | -24.42604 | 24.89468 | 34079 ft | 385 kts | 282° |
| 2026-05-04 13:23 | -24.41535 | 24.83751 | 34070 ft | 385 kts | 282° |
| 2026-05-04 13:24 | -24.40457 | 24.77999 | 34065 ft | 385 kts | 282° |
| 2026-05-04 13:24 | -24.39381 | 24.72252 | 34053 ft | 385 kts | 282° |
| 2026-05-04 13:25 | -24.37690 | 24.63653 | 34057 ft | 384 kts | 284° |
| 2026-05-04 13:25 | -24.36296 | 24.57995 | 34050 ft | 384 kts | 285° |
| 2026-05-04 13:26 | -24.34854 | 24.52357 | 34047 ft | 384 kts | 285° |
| 2026-05-04 13:26 | -24.33444 | 24.46708 | 34045 ft | 384 kts | 285° |
| 2026-05-04 13:27 | -24.32064 | 24.41054 | 34041 ft | 384 kts | 285° |
| 2026-05-04 13:27 | -24.30680 | 24.35402 | 34032 ft | 384 kts | 285° |
| 2026-05-04 13:28 | -24.29284 | 24.29756 | 34034 ft | 384 kts | 285° |
| 2026-05-04 13:28 | -24.27887 | 24.24113 | 34031 ft | 384 kts | 285° |
| 2026-05-04 13:29 | -24.26492 | 24.18465 | 34029 ft | 384 kts | 285° |
| 2026-05-04 13:29 | -24.25110 | 24.12857 | 34026 ft | 384 kts | 285° |
| 2026-05-04 13:30 | -24.23717 | 24.07211 | 34023 ft | 384 kts | 285° |
| 2026-05-04 13:30 | -24.22316 | 24.01567 | 34024 ft | 384 kts | 285° |
| 2026-05-04 13:31 | -24.20909 | 23.95933 | 34016 ft | 383 kts | 285° |
| 2026-05-04 13:31 | -24.19499 | 23.90304 | 34015 ft | 383 kts | 285° |
| 2026-05-04 13:32 | -24.18095 | 23.84677 | 34015 ft | 383 kts | 285° |
| 2026-05-04 13:32 | -24.16697 | 23.79056 | 34011 ft | 383 kts | 285° |
| 2026-05-04 13:33 | -24.15292 | 23.73436 | 34006 ft | 382 kts | 285° |
| 2026-05-04 13:33 | -24.13882 | 23.67825 | 34003 ft | 382 kts | 285° |
| 2026-05-04 13:34 | -24.12485 | 23.62249 | 34001 ft | 382 kts | 285° |
| 2026-05-04 13:34 | -24.11082 | 23.56639 | 33999 ft | 382 kts | 285° |
| 2026-05-04 13:35 | -24.08960 | 23.48239 | 33984 ft | 382 kts | 285° |
| 2026-05-04 13:36 | -24.07544 | 23.42645 | 33995 ft | 381 kts | 285° |
| 2026-05-04 13:36 | -24.06133 | 23.37056 | 33986 ft | 381 kts | 285° |
| 2026-05-04 13:37 | -24.04724 | 23.31470 | 33985 ft | 381 kts | 285° |
| 2026-05-04 13:37 | -24.03304 | 23.25887 | 33975 ft | 381 kts | 285° |
| 2026-05-04 13:38 | -24.01882 | 23.20311 | 33976 ft | 380 kts | 285° |
| 2026-05-04 13:38 | -24.00474 | 23.14776 | 33973 ft | 380 kts | 285° |
| 2026-05-04 13:39 | -23.99056 | 23.09207 | 33967 ft | 380 kts | 285° |
| 2026-05-04 13:39 | -23.97632 | 23.03635 | 33964 ft | 380 kts | 285° |
| 2026-05-04 13:40 | -23.96207 | 22.98070 | 33963 ft | 380 kts | 285° |
| 2026-05-04 13:40 | -23.94782 | 22.92508 | 33965 ft | 380 kts | 285° |
| 2026-05-04 13:41 | -23.93359 | 22.86946 | 33964 ft | 380 kts | 285° |
| 2026-05-04 13:41 | -23.91932 | 22.81387 | 33963 ft | 380 kts | 285° |
| 2026-05-04 13:42 | -23.89781 | 22.73056 | 33963 ft | 380 kts | 285° |
| 2026-05-04 13:42 | -23.88347 | 22.67503 | 33961 ft | 380 kts | 285° |
| 2026-05-04 13:43 | -23.86919 | 22.61954 | 33966 ft | 379 kts | 285° |
| 2026-05-04 13:43 | -23.85490 | 22.56407 | 33966 ft | 379 kts | 285° |
| 2026-05-04 13:44 | -23.84056 | 22.50870 | 33961 ft | 379 kts | 286° |
| 2026-05-04 13:44 | -23.82617 | 22.45337 | 33961 ft | 378 kts | 285° |
| 2026-05-04 13:45 | -23.81178 | 22.39811 | 33963 ft | 378 kts | 286° |
| 2026-05-04 13:45 | -23.79755 | 22.34321 | 33964 ft | 378 kts | 285° |
| 2026-05-04 13:46 | -23.78319 | 22.28794 | 33965 ft | 378 kts | 286° |
| 2026-05-04 13:46 | -23.76879 | 22.23277 | 33963 ft | 378 kts | 286° |
| 2026-05-04 13:47 | -23.75443 | 22.17760 | 33966 ft | 378 kts | 286° |
| 2026-05-04 13:47 | -23.74000 | 22.12255 | 33966 ft | 377 kts | 286° |
| 2026-05-04 13:48 | -23.72548 | 22.06748 | 33966 ft | 377 kts | 286° |
| 2026-05-04 13:48 | -23.71100 | 22.01249 | 33970 ft | 377 kts | 286° |
| 2026-05-04 13:49 | -23.69653 | 21.95747 | 33976 ft | 377 kts | 286° |
| 2026-05-04 13:49 | -23.68208 | 21.90249 | 33975 ft | 377 kts | 286° |
| 2026-05-04 13:50 | -23.66774 | 21.84793 | 33975 ft | 377 kts | 286° |
| 2026-05-04 13:50 | -23.65322 | 21.79301 | 33979 ft | 377 kts | 286° |
| 2026-05-04 13:51 | -23.63860 | 21.73816 | 33985 ft | 377 kts | 286° |
| 2026-05-04 13:51 | -23.62407 | 21.68330 | 33994 ft | 376 kts | 286° |
| 2026-05-04 13:52 | -23.60228 | 21.60111 | 33998 ft | 376 kts | 286° |
| 2026-05-04 13:53 | -23.58773 | 21.54632 | 34007 ft | 376 kts | 286° |
| 2026-05-04 13:53 | -23.57310 | 21.49162 | 34012 ft | 376 kts | 286° |
| 2026-05-04 13:54 | -23.55124 | 21.40965 | 34012 ft | 375 kts | 286° |
| 2026-05-04 13:55 | -23.52934 | 21.32785 | 34013 ft | 374 kts | 286° |
| 2026-05-04 13:55 | -23.50752 | 21.24657 | 34022 ft | 374 kts | 286° |
| 2026-05-04 13:56 | -23.49293 | 21.19220 | 34024 ft | 374 kts | 286° |
| 2026-05-04 13:57 | -23.47338 | 21.11953 | 34024 ft | 374 kts | 286° |
| 2026-05-04 13:58 | -23.44417 | 21.01137 | 34028 ft | 373 kts | 286° |
| 2026-05-04 13:58 | -23.42220 | 20.93014 | 34025 ft | 373 kts | 286° |
| 2026-05-04 13:59 | -23.40757 | 20.87599 | 34023 ft | 372 kts | 286° |
| 2026-05-04 14:00 | -23.38565 | 20.79496 | 34023 ft | 372 kts | 286° |
| 2026-05-04 14:00 | -23.36351 | 20.71401 | 34024 ft | 372 kts | 287° |
| 2026-05-04 14:01 | -23.34874 | 20.66009 | 34024 ft | 372 kts | 287° |
| 2026-05-04 14:02 | -23.32671 | 20.57929 | 34022 ft | 371 kts | 287° |
| 2026-05-04 14:02 | -23.31196 | 20.52544 | 34022 ft | 371 kts | 287° |
| 2026-05-04 14:03 | -23.29720 | 20.47167 | 34016 ft | 371 kts | 287° |
| 2026-05-04 14:03 | -23.28247 | 20.41793 | 34019 ft | 371 kts | 287° |
| 2026-05-04 14:04 | -23.26033 | 20.33741 | 34019 ft | 370 kts | 287° |
| 2026-05-04 14:04 | -23.24553 | 20.28380 | 34012 ft | 370 kts | 287° |
| 2026-05-04 14:05 | -23.22334 | 20.20336 | 34005 ft | 370 kts | 287° |
| 2026-05-04 14:06 | -23.20852 | 20.14985 | 34014 ft | 370 kts | 287° |
| 2026-05-04 14:06 | -23.19435 | 20.09847 | 34010 ft | 370 kts | 287° |
| 2026-05-04 14:07 | -23.17948 | 20.04498 | 34008 ft | 370 kts | 287° |
| 2026-05-04 14:07 | -23.16467 | 19.99149 | 34007 ft | 370 kts | 287° |
| 2026-05-04 14:08 | -23.15045 | 19.93785 | 34005 ft | 369 kts | 286° |
| 2026-05-04 14:08 | -23.13651 | 19.88414 | 34003 ft | 369 kts | 286° |
| 2026-05-04 14:09 | -23.11527 | 19.80375 | 34004 ft | 369 kts | 287° |
| 2026-05-04 14:10 | -23.09389 | 19.72354 | 34000 ft | 369 kts | 287° |
| 2026-05-04 14:10 | -23.07971 | 19.67004 | 34000 ft | 368 kts | 287° |
| 2026-05-04 14:11 | -23.06558 | 19.61660 | 33997 ft | 368 kts | 287° |
| 2026-05-04 14:11 | -23.04416 | 19.53658 | 33995 ft | 368 kts | 287° |
| 2026-05-04 14:12 | -23.02992 | 19.48328 | 33996 ft | 368 kts | 287° |
| 2026-05-04 14:13 | -23.00862 | 19.40332 | 33994 ft | 367 kts | 287° |
| 2026-05-04 14:13 | -22.99429 | 19.35012 | 33992 ft | 367 kts | 287° |
| 2026-05-04 14:14 | -22.98005 | 19.29730 | 33991 ft | 367 kts | 287° |
| 2026-05-04 14:14 | -22.95867 | 19.21754 | 33991 ft | 367 kts | 287° |
| 2026-05-04 14:15 | -22.93000 | 19.11137 | 33988 ft | 366 kts | 287° |
| 2026-05-04 14:16 | -22.90849 | 19.03174 | 33962 ft | 368 kts | 287° |
| 2026-05-04 14:17 | -22.88681 | 18.95155 | 33949 ft | 371 kts | 287° |
| 2026-05-04 14:18 | -22.86493 | 18.87096 | 33956 ft | 372 kts | 287° |
| 2026-05-04 14:19 | -22.83550 | 18.76339 | 33958 ft | 372 kts | 287° |
| 2026-05-04 14:19 | -22.82084 | 18.70955 | 33955 ft | 372 kts | 287° |
| 2026-05-04 14:20 | -22.80615 | 18.65573 | 33958 ft | 372 kts | 287° |
| 2026-05-04 14:20 | -22.79142 | 18.60196 | 33967 ft | 372 kts | 287° |
| 2026-05-04 14:21 | -22.77708 | 18.54960 | 33539 ft | 358 kts | 287° |
| 2026-05-04 14:21 | -22.77006 | 18.52391 | 33100 ft | 354 kts | 287° |
| 2026-05-04 14:21 | -22.76311 | 18.49848 | 32631 ft | 351 kts | 287° |
| 2026-05-04 14:21 | -22.75618 | 18.47321 | 32156 ft | 348 kts | 287° |
| 2026-05-04 14:22 | -22.74931 | 18.44815 | 31690 ft | 346 kts | 287° |
| 2026-05-04 14:22 | -22.74246 | 18.42326 | 31240 ft | 344 kts | 287° |
| 2026-05-04 14:22 | -22.73565 | 18.39851 | 30794 ft | 342 kts | 287° |
| 2026-05-04 14:22 | -22.72890 | 18.37394 | 30356 ft | 340 kts | 287° |
| 2026-05-04 14:23 | -22.71464 | 18.32548 | 29389 ft | 336 kts | 294° |
| 2026-05-04 14:23 | -22.70332 | 18.30337 | 28869 ft | 336 kts | 298° |
| 2026-05-04 14:23 | -22.69150 | 18.28156 | 28362 ft | 335 kts | 298° |
| 2026-05-04 14:24 | -22.67972 | 18.25981 | 27879 ft | 335 kts | 298° |
| 2026-05-04 14:24 | -22.66796 | 18.23809 | 27408 ft | 334 kts | 298° |
| 2026-05-04 14:24 | -22.65622 | 18.21639 | 26941 ft | 334 kts | 299° |
| 2026-05-04 14:24 | -22.64449 | 18.19471 | 26453 ft | 333 kts | 299° |
| 2026-05-04 14:25 | -22.63278 | 18.17309 | 26003 ft | 333 kts | 298° |
| 2026-05-04 14:25 | -22.60940 | 18.12984 | 25105 ft | 333 kts | 299° |
| 2026-05-04 14:25 | -22.59774 | 18.10824 | 24659 ft | 333 kts | 299° |
| 2026-05-04 14:26 | -22.58603 | 18.08666 | 24205 ft | 332 kts | 300° |
| 2026-05-04 14:26 | -22.57430 | 18.06507 | 23762 ft | 333 kts | 299° |
| 2026-05-04 14:26 | -22.56258 | 18.04348 | 23268 ft | 333 kts | 299° |
| 2026-05-04 14:26 | -22.55086 | 18.02190 | 22773 ft | 332 kts | 299° |
| 2026-05-04 14:27 | -22.53918 | 18.00039 | 22309 ft | 331 kts | 299° |
| 2026-05-04 14:27 | -22.52771 | 17.97924 | 21852 ft | 330 kts | 299° |
| 2026-05-04 14:27 | -22.51613 | 17.95790 | 21408 ft | 328 kts | 299° |
| 2026-05-04 14:27 | -22.50458 | 17.93664 | 20982 ft | 327 kts | 300° |
| 2026-05-04 14:28 | -22.49310 | 17.91552 | 20560 ft | 325 kts | 300° |
| 2026-05-04 14:28 | -22.48164 | 17.89447 | 20131 ft | 324 kts | 300° |
| 2026-05-04 14:28 | -22.47035 | 17.87375 | 19966 ft | 315 kts | 300° |
| 2026-05-04 14:28 | -22.45939 | 17.85365 | 19850 ft | 305 kts | 300° |
| 2026-05-04 14:29 | -22.43844 | 17.81526 | 19575 ft | 290 kts | 300° |
| 2026-05-04 14:29 | -22.41810 | 17.77807 | 19080 ft | 285 kts | 300° |
| 2026-05-04 14:30 | -22.40814 | 17.75985 | 18979 ft | 278 kts | 300° |
| 2026-05-04 14:30 | -22.40073 | 17.74103 | 18877 ft | 270 kts | 283° |
| 2026-05-04 14:30 | -22.38926 | 17.70342 | 18237 ft | 271 kts | 297° |
| 2026-05-04 14:31 | -22.37994 | 17.68498 | 17495 ft | 287 kts | 298° |
| 2026-05-04 14:31 | -22.36182 | 17.64651 | 16399 ft | 286 kts | 283° |
| 2026-05-04 14:32 | -22.37108 | 17.60665 | 15323 ft | 289 kts | 229° |
| 2026-05-04 14:32 | -22.38801 | 17.59484 | 14794 ft | 296 kts | 201° |
| 2026-05-04 14:32 | -22.40862 | 17.59304 | 14285 ft | 304 kts | 173° |
| 2026-05-04 14:32 | -22.42802 | 17.60229 | 13749 ft | 311 kts | 142° |
| 2026-05-04 14:33 | -22.44091 | 17.62087 | 13158 ft | 313 kts | 110° |
| 2026-05-04 14:33 | -22.44362 | 17.64393 | 12567 ft | 310 kts | 78° |
| 2026-05-04 14:33 | -22.43592 | 17.66478 | 11971 ft | 301 kts | 48° |
| 2026-05-04 14:33 | -22.42100 | 17.67987 | 11380 ft | 293 kts | 34° |
| 2026-05-04 14:34 | -22.40576 | 17.69469 | 10765 ft | 297 kts | 46° |
| 2026-05-04 14:34 | -22.39679 | 17.71475 | 10243 ft | 301 kts | 79° |
| 2026-05-04 14:34 | -22.39777 | 17.73721 | 9714 ft | 302 kts | 107° |
| 2026-05-04 14:34 | -22.40689 | 17.75740 | 9144 ft | 299 kts | 129° |
| 2026-05-04 14:35 | -22.42236 | 17.77245 | 8691 ft | 296 kts | 153° |
| 2026-05-04 14:35 | -22.44114 | 17.77969 | 8406 ft | 288 kts | 176° |
| 2026-05-04 14:35 | -22.46079 | 17.77884 | 8077 ft | 280 kts | 200° |
| 2026-05-04 14:35 | -22.47810 | 17.77034 | 7963 ft | 271 kts | 221° |
| 2026-05-04 14:36 | -22.49120 | 17.75607 | 7979 ft | 266 kts | 242° |
| 2026-05-04 14:36 | -22.49811 | 17.73804 | 8000 ft | 258 kts | 263° |
| 2026-05-04 14:36 | -22.49783 | 17.71894 | 8009 ft | 254 kts | 286° |
| 2026-05-04 14:36 | -22.49051 | 17.70181 | 8026 ft | 252 kts | 308° |
| 2026-05-04 14:37 | -22.47865 | 17.68777 | 8039 ft | 254 kts | 313° |
| 2026-05-04 14:37 | -22.46655 | 17.67390 | 8051 ft | 251 kts | 313° |
| 2026-05-04 14:37 | -22.45493 | 17.66052 | 8059 ft | 237 kts | 313° |
| 2026-05-04 14:37 | -22.44400 | 17.64791 | 8068 ft | 223 kts | 312° |
| 2026-05-04 14:38 | -22.43374 | 17.63610 | 8072 ft | 208 kts | 313° |
| 2026-05-04 14:38 | -22.42425 | 17.62471 | 7992 ft | 202 kts | 304° |
| 2026-05-04 14:38 | -22.41957 | 17.61095 | 7807 ft | 193 kts | 276° |
| 2026-05-04 14:38 | -22.42171 | 17.59701 | 7620 ft | 188 kts | 251° |
| 2026-05-04 14:39 | -22.42736 | 17.58470 | 7429 ft | 178 kts | 249° |
| 2026-05-04 14:39 | -22.43268 | 17.57331 | 7239 ft | 159 kts | 250° |
| 2026-05-04 14:39 | -22.43750 | 17.56290 | 7051 ft | 152 kts | 250° |
| 2026-05-04 14:40 | -22.44686 | 17.54259 | 6697 ft | 153 kts | 249° |
| 2026-05-04 14:40 | -22.45161 | 17.53228 | 6517 ft | 152 kts | 250° |
| 2026-05-04 14:40 | -22.45634 | 17.52204 | 6300 ft | 152 kts | 249° |
| 2026-05-04 14:40 | -22.46115 | 17.51161 | 6062 ft | 158 kts | 248° |
| 2026-05-04 14:41 | -22.46600 | 17.50117 | 5781 ft | 155 kts | 250° |
| 2026-05-04 14:41 | -22.47074 | 17.49091 | 5604 ft | 151 kts | 250° |
| 2026-05-04 14:41 | -22.47860 | 17.47370 | 5558 ft | 66 kts | 242° |
| 2026-05-04 14:42 | -22.48097 | 17.46859 | 5562 ft | 33 kts | 244° |
| 2026-05-04 14:42 | -22.48197 | 17.46645 | 5562 ft | 32 kts | 243° |
| 2026-05-04 14:42 | -22.48288 | 17.46448 | 5563 ft | 23 kts | 243° |
| 2026-05-04 14:43 | -22.48350 | 17.46309 | 5566 ft | 18 kts | 244° |
| 2026-05-04 14:43 | -22.48403 | 17.46290 | 5567 ft | 8 kts | 149° |
| 2026-05-04 14:43 | -22.48448 | 17.46317 | 5569 ft | 7 kts | 140° |
| 2026-05-04 14:43 | -22.48450 | 17.46360 | 5569 ft | 7 kts | 66° |
| 2026-05-04 14:44 | -22.48458 | 17.46400 | 5569 ft | 6 kts | 155° |
| 2026-05-04 14:44 | -22.48501 | 17.46423 | 5568 ft | 8 kts | 153° |
| 2026-05-04 14:44 | -22.48557 | 17.46440 | 5568 ft | 5 kts | 133° |
| 2026-05-04 14:44 | -22.48542 | 17.46453 | 5567 ft | 3 kts | 359° |
| 2026-05-04 14:45 | -22.48535 | 17.46450 | 5567 ft | 0 kts | 333° |